createdAt,value
2022-08-20T00:00:44.500Z,15.17
2022-08-20T00:03:16.321Z,15.06
2022-08-20T02:17:12.083Z,13.57
2022-08-20T02:19:42.733Z,13.59
2022-08-20T02:22:20.541Z,13.60
2022-08-20T02:24:48.428Z,13.61
2022-08-20T02:27:15.649Z,13.59
2022-08-20T02:29:42.587Z,13.56
2022-08-20T02:32:24.575Z,13.52
2022-08-20T02:34:58.869Z,13.46
2022-08-20T02:37:25.667Z,13.43
2022-08-20T02:39:52.649Z,13.37
2022-08-20T02:42:19.429Z,13.35
2022-08-20T02:44:46.452Z,13.32
2022-08-20T02:47:14.558Z,13.33
2022-08-20T02:49:41.324Z,13.31
2022-08-20T02:52:10.633Z,13.33
2022-08-20T02:54:37.439Z,13.34
2022-08-20T02:57:04.694Z,13.29
2022-08-20T02:59:31.698Z,13.29
2022-08-20T03:02:00.379Z,13.22
2022-08-20T03:04:29.990Z,13.21
2022-08-20T03:06:57.196Z,13.16
2022-08-20T03:09:24.133Z,13.14
2022-08-20T03:11:51.457Z,13.09
2022-08-20T03:14:18.335Z,13.07
2022-08-20T03:16:45.118Z,13.01
2022-08-20T03:19:13.403Z,12.97
2022-08-20T03:21:41.760Z,12.96
2022-08-20T03:24:09.207Z,13.01
2022-08-20T03:26:35.967Z,13.00
2022-08-20T03:29:03.319Z,13.00
2022-08-20T03:31:30.397Z,12.93
2022-08-20T03:33:57.173Z,12.92
2022-08-20T03:36:28.758Z,12.96
2022-08-20T03:38:59.329Z,12.98
2022-08-20T03:41:26.553Z,12.96
2022-08-20T03:43:53.813Z,12.91
2022-08-20T03:46:23.356Z,12.90
2022-08-20T03:48:56.585Z,12.91
2022-08-20T03:51:27.696Z,12.92
2022-08-20T03:53:54.459Z,12.90
2022-08-20T03:56:22.585Z,12.84
2022-08-20T03:58:49.472Z,12.84
2022-08-20T04:01:44.243Z,12.79
2022-08-20T04:04:03.519Z,12.81
2022-08-20T04:06:30.451Z,12.79
2022-08-20T04:08:58.631Z,12.79
2022-08-20T04:11:26.754Z,12.77
2022-08-20T04:13:53.548Z,12.76
2022-08-20T04:16:22.412Z,12.71
2022-08-20T04:19:01.517Z,12.76
2022-08-20T04:21:30.954Z,12.76
2022-08-20T04:24:00.706Z,12.74
2022-08-20T04:26:29.262Z,12.75
2022-08-20T04:28:56.071Z,12.75
2022-08-20T04:31:33.857Z,12.70
2022-08-20T04:34:01.594Z,12.67
2022-08-20T04:36:28.752Z,12.69
2022-08-20T04:38:55.690Z,12.75
2022-08-20T04:41:24.267Z,12.78
2022-08-20T04:43:54.471Z,12.76
2022-08-20T04:46:25.530Z,12.80
2022-08-20T04:48:53.014Z,12.81
2022-08-20T04:51:22.788Z,12.83
2022-08-20T04:53:53.426Z,12.84
2022-08-20T04:56:23.764Z,12.86
2022-08-20T04:58:54.017Z,12.91
2022-08-20T05:01:21.116Z,12.96
2022-08-20T05:03:48.051Z,13.00
2022-08-20T05:06:16.789Z,13.05
2022-08-20T05:08:44.464Z,13.09
2022-08-20T05:11:35.788Z,13.15
2022-08-20T05:13:59.975Z,13.23
2022-08-20T05:16:26.935Z,13.29
2022-08-20T05:18:53.748Z,13.38
2022-08-20T05:21:21.203Z,13.48
2022-08-20T05:23:49.320Z,13.53
2022-08-20T05:26:17.172Z,13.67
2022-08-20T05:28:54.123Z,13.76
2022-08-20T05:31:31.344Z,13.89
2022-08-20T05:34:00.792Z,13.96
2022-08-20T05:36:27.634Z,14.00
2022-08-20T05:38:54.753Z,14.08
2022-08-20T05:41:29.436Z,14.13
2022-08-20T05:43:57.151Z,14.18
2022-08-20T06:39:56.207Z,21.59
2022-08-20T06:42:27.071Z,22.07
2022-08-20T06:44:53.984Z,22.44
2022-08-20T06:47:21.402Z,22.39
2022-08-20T06:49:48.788Z,22.20
2022-08-20T06:52:17.168Z,22.00
2022-08-20T06:54:44.107Z,22.22
2022-08-20T06:57:11.049Z,22.64
2022-08-20T06:59:39.342Z,23.06
2022-08-20T07:02:06.584Z,23.49
2022-08-20T07:04:33.476Z,23.68
2022-08-20T07:07:00.333Z,23.56
2022-08-20T07:09:27.562Z,23.80
2022-08-20T07:11:54.442Z,24.17
2022-08-20T07:14:22.304Z,24.19
2022-08-20T07:16:50.498Z,24.38
2022-08-20T07:19:17.777Z,23.99
2022-08-20T07:21:44.999Z,24.24
2022-08-20T07:24:12.625Z,24.52
2022-08-20T07:26:40.202Z,24.97
2022-08-20T07:29:07.021Z,25.05
2022-08-20T07:31:52.592Z,25.27
2022-08-20T07:34:21.265Z,24.79
2022-08-20T07:36:48.865Z,23.94
2022-08-20T07:39:15.697Z,24.40
2022-08-20T07:41:43.709Z,24.11
2022-08-20T07:44:21.612Z,24.27
2022-08-20T07:47:04.780Z,24.20
2022-08-20T07:49:38.154Z,24.33
2022-08-20T07:52:06.018Z,23.74
2022-08-20T07:54:35.829Z,24.10
2022-08-20T07:57:03.365Z,24.11
2022-08-20T07:59:30.894Z,24.09
2022-08-20T08:01:58.532Z,23.48
2022-08-20T08:04:25.752Z,23.69
2022-08-20T08:06:54.034Z,24.01
2022-08-20T08:09:20.837Z,24.78
2022-08-20T08:11:50.281Z,24.02
2022-08-20T08:14:23.209Z,23.98
2022-08-20T08:16:50.947Z,23.90
2022-08-20T08:19:18.958Z,23.57
2022-08-20T08:21:45.854Z,22.80
2022-08-20T08:24:20.307Z,22.66
2022-08-20T08:26:50.133Z,22.55
2022-08-20T08:29:17.280Z,22.94
2022-08-20T08:31:44.613Z,23.86
2022-08-20T08:34:13.433Z,24.20
2022-08-20T08:36:40.485Z,24.25
2022-08-20T08:39:07.364Z,23.50
2022-08-20T08:41:39.883Z,24.06
2022-08-20T08:44:10.779Z,24.12
2022-08-20T08:46:41.575Z,24.23
2022-08-20T08:49:12.291Z,23.76
2022-08-20T08:51:42.525Z,23.09
2022-08-20T08:54:15.892Z,23.57
2022-08-20T08:56:49.896Z,23.64
2022-08-20T08:59:18.654Z,23.73
2022-08-20T09:01:55.361Z,23.92
2022-08-20T09:04:32.446Z,23.84
2022-08-20T09:07:01.770Z,24.03
2022-08-20T09:09:32.240Z,23.51
2022-08-20T09:12:06.383Z,23.75
2022-08-20T09:14:33.864Z,23.24
2022-08-20T09:17:00.778Z,23.27
2022-08-20T09:19:27.825Z,23.06
2022-08-20T09:21:54.834Z,23.46
2022-08-20T09:24:21.588Z,23.64
2022-08-20T09:26:48.375Z,23.41
2022-08-20T09:29:17.593Z,23.62
2022-08-20T09:31:44.331Z,23.95
2022-08-20T09:34:13.541Z,24.05
2022-08-20T09:36:40.331Z,24.10
2022-08-20T09:39:07.199Z,24.69
2022-08-20T09:41:34.520Z,23.81
2022-08-20T09:44:01.761Z,23.25
2022-08-20T09:46:30.076Z,22.68
2022-08-20T09:48:56.882Z,21.97
2022-08-20T09:51:23.853Z,21.74
2022-08-20T09:53:50.920Z,21.47
2022-08-20T09:56:18.050Z,21.28
2022-08-20T09:58:49.933Z,21.38
2022-08-20T10:01:19.617Z,21.65
2022-08-20T10:03:51.522Z,21.62
2022-08-20T10:06:20.393Z,22.00
2022-08-20T10:08:47.959Z,22.75
2022-08-20T10:11:15.044Z,22.38
2022-08-20T10:13:41.932Z,21.99
2022-08-20T10:16:10.693Z,22.59
2022-08-20T10:18:37.581Z,23.21
2022-08-20T10:21:09.886Z,22.93
2022-08-20T10:23:36.674Z,22.72
2022-08-20T10:26:03.801Z,22.70
2022-08-20T10:28:30.594Z,23.32
2022-08-20T10:30:57.365Z,23.11
2022-08-20T10:33:24.384Z,22.37
2022-08-20T10:35:51.170Z,22.27
2022-08-20T10:38:22.981Z,22.22
2022-08-20T10:40:49.827Z,22.23
2022-08-20T10:43:19.374Z,22.26
2022-08-20T10:45:46.144Z,21.86
2022-08-20T10:48:12.960Z,21.70
2022-08-20T10:50:39.785Z,22.20
2022-08-20T10:53:06.554Z,21.57
2022-08-20T10:55:34.796Z,21.29
2022-08-20T10:58:04.672Z,21.91
2022-08-20T11:00:33.236Z,22.47
2022-08-20T11:03:00.073Z,23.06
2022-08-20T11:05:26.952Z,23.60
2022-08-20T11:07:56.680Z,23.69
2022-08-20T11:10:25.573Z,23.07
2022-08-20T11:12:53.764Z,23.63
2022-08-20T11:15:20.572Z,23.04
2022-08-20T11:17:47.725Z,22.59
2022-08-20T11:20:18.434Z,22.28
2022-08-20T11:22:45.249Z,22.55
2022-08-20T11:25:12.119Z,22.20
2022-08-20T11:27:41.458Z,22.35
2022-08-20T11:30:18.263Z,22.57
2022-08-20T11:32:45.115Z,23.06
2022-08-20T11:35:41.039Z,22.69
2022-08-20T11:37:59.844Z,22.84
2022-08-20T11:40:28.494Z,23.01
2022-08-20T11:45:47.841Z,23.97
2022-08-20T11:48:14.822Z,24.29
2022-08-20T11:50:41.669Z,24.71
2022-08-20T11:53:08.505Z,24.78
2022-08-20T11:55:35.485Z,24.37
2022-08-20T11:58:02.271Z,24.49
2022-08-20T12:00:32.678Z,24.17
2022-08-20T12:03:04.935Z,24.01
2022-08-20T12:05:32.558Z,23.50
2022-08-20T12:08:01.351Z,23.33
2022-08-20T12:10:28.334Z,22.62
2022-08-20T12:12:55.414Z,22.44
2022-08-20T12:15:22.297Z,22.38
2022-08-20T12:17:49.077Z,23.49
2022-08-20T12:20:17.229Z,23.96
2022-08-20T12:22:44.725Z,24.12
2022-08-20T12:25:13.280Z,24.61
2022-08-20T12:27:41.111Z,24.63
2022-08-20T12:30:11.128Z,24.61
2022-08-20T12:32:38.059Z,23.87
2022-08-20T12:35:07.211Z,23.97
2022-08-20T12:37:36.248Z,23.73
2022-08-20T12:40:06.845Z,23.47
2022-08-20T12:42:33.779Z,23.32
2022-08-20T12:45:01.304Z,23.10
2022-08-20T12:47:30.345Z,23.03
2022-08-20T12:50:00.965Z,23.52
2022-08-20T12:52:29.367Z,24.25
2022-08-20T12:54:58.264Z,24.31
2022-08-20T12:57:28.813Z,23.65
2022-08-20T12:59:56.169Z,23.28
2022-08-20T13:02:23.086Z,23.02
2022-08-20T13:04:50.009Z,23.17
2022-08-20T13:07:17.255Z,23.20
2022-08-20T13:09:44.687Z,23.30
2022-08-20T13:12:14.368Z,24.14
2022-08-20T13:14:42.267Z,24.23
2022-08-20T13:17:09.540Z,23.71
2022-08-20T13:19:38.414Z,24.07
2022-08-20T13:22:05.614Z,24.24
2022-08-20T13:24:32.462Z,24.29
2022-08-20T13:27:05.356Z,24.37
2022-08-20T13:29:33.939Z,23.71
2022-08-20T13:32:01.025Z,24.03
2022-08-20T13:34:28.268Z,24.05
2022-08-20T13:36:55.513Z,24.21
2022-08-20T13:39:23.078Z,24.14
2022-08-20T13:41:50.214Z,24.51
2022-08-20T13:44:16.996Z,24.26
2022-08-20T13:46:45.230Z,24.45
2022-08-20T13:49:12.069Z,24.07
2022-08-20T13:51:38.838Z,23.88
2022-08-20T13:54:05.766Z,23.94
2022-08-20T13:56:37.601Z,24.06
2022-08-20T13:59:04.572Z,24.38
2022-08-20T14:01:31.757Z,24.40
2022-08-20T14:04:00.040Z,24.20
2022-08-20T14:06:27.925Z,23.94
2022-08-20T14:08:54.735Z,23.93
2022-08-20T14:11:21.523Z,23.47
2022-08-20T14:13:48.266Z,23.57
2022-08-20T14:16:21.259Z,23.43
2022-08-20T14:18:55.524Z,23.24
2022-08-20T14:21:23.761Z,23.21
2022-08-20T14:23:50.480Z,23.09
2022-08-20T14:26:17.284Z,23.36
2022-08-20T14:28:44.089Z,23.27
2022-08-20T14:31:10.859Z,23.13
2022-08-20T14:33:41.260Z,23.10
2022-08-20T14:36:10.780Z,23.46
2022-08-20T14:38:41.526Z,23.52
2022-08-20T14:41:08.266Z,23.57
2022-08-20T14:43:35.014Z,23.88
2022-08-20T14:46:02.009Z,24.29
2022-08-20T14:48:28.881Z,24.22
2022-08-20T14:50:55.977Z,24.17
2022-08-20T14:53:22.756Z,24.58
2022-08-20T14:55:50.888Z,24.56
2022-08-20T14:58:18.459Z,24.52
2022-08-20T15:00:45.371Z,24.62
2022-08-20T15:03:14.779Z,24.84
2022-08-20T15:05:44.004Z,24.77
2022-08-20T15:08:11.327Z,24.59
2022-08-20T15:10:39.360Z,24.20
2022-08-20T15:13:07.836Z,24.06
2022-08-20T15:15:35.342Z,23.82
2022-08-20T15:18:03.592Z,23.68
2022-08-20T15:20:32.548Z,23.73
2022-08-20T15:23:00.182Z,23.94
2022-08-20T15:25:36.165Z,24.32
2022-08-20T15:28:07.568Z,24.50
2022-08-20T15:30:35.131Z,24.09
2022-08-20T15:33:02.308Z,23.63
2022-08-20T15:35:29.499Z,23.17
2022-08-20T15:37:58.087Z,23.04
2022-08-20T15:40:28.458Z,23.06
2022-08-20T15:42:55.838Z,22.95
2022-08-20T15:45:23.983Z,23.02
2022-08-20T15:47:54.355Z,23.00
2022-08-20T15:50:34.844Z,22.95
2022-08-20T15:53:05.589Z,23.25
2022-08-20T15:55:35.942Z,23.62
2022-08-20T15:58:11.091Z,23.93
2022-08-20T16:00:45.576Z,23.82
2022-08-20T16:03:31.097Z,23.83
2022-08-20T16:06:03.019Z,23.73
2022-08-20T16:08:40.882Z,23.51
2022-08-20T16:11:21.820Z,23.53
2022-08-20T16:13:51.923Z,23.55
2022-08-20T16:16:26.149Z,23.50
2022-08-20T16:18:54.344Z,23.16
2022-08-20T16:21:28.698Z,23.08
2022-08-20T16:23:56.500Z,22.96
2022-08-20T16:26:43.739Z,22.86
2022-08-20T16:29:17.523Z,22.63
2022-08-20T16:31:54.534Z,22.45
2022-08-20T16:34:34.317Z,22.49
2022-08-20T16:37:06.428Z,22.47
2022-08-20T16:39:40.731Z,22.57
2022-08-20T16:42:09.651Z,22.61
2022-08-20T16:44:39.358Z,22.74
2022-08-20T16:47:15.950Z,22.75
2022-08-20T16:49:49.894Z,22.71
2022-08-20T16:52:16.699Z,22.60
2022-08-20T16:54:44.703Z,22.49
2022-08-20T16:57:17.150Z,22.33
2022-08-20T17:00:15.884Z,22.41
2022-08-20T17:02:52.382Z,22.35
2022-08-20T17:05:20.117Z,22.28
2022-08-20T17:07:53.250Z,22.18
2022-08-20T17:10:23.837Z,22.40
2022-08-20T17:12:59.825Z,22.68
2022-08-20T17:15:29.876Z,22.85
2022-08-20T17:18:15.895Z,23.01
2022-08-20T17:20:44.783Z,22.95
2022-08-20T17:23:17.972Z,22.84
2022-08-20T17:25:46.812Z,22.69
2022-08-20T17:28:18.807Z,22.48
2022-08-20T17:30:52.934Z,22.41
2022-08-20T17:33:28.523Z,22.32
2022-08-20T17:35:58.132Z,22.31
2022-08-20T17:38:37.182Z,22.44
2022-08-20T17:41:11.881Z,22.44
2022-08-20T17:43:45.564Z,22.41
2022-08-20T17:46:16.540Z,22.19
2022-08-20T17:48:49.365Z,22.25
2022-08-20T17:51:26.772Z,22.13
2022-08-20T17:54:02.628Z,21.97
2022-08-20T17:56:32.910Z,21.77
2022-08-20T17:59:24.142Z,21.64
2022-08-20T18:02:04.698Z,21.44
2022-08-20T18:04:33.328Z,21.34
2022-08-20T18:07:13.268Z,21.07
2022-08-20T18:09:47.973Z,21.07
2022-08-20T18:12:34.310Z,20.89
2022-08-20T18:15:19.228Z,20.71
2022-08-20T18:18:14.372Z,20.61
2022-08-20T18:21:05.974Z,20.50
2022-08-20T18:23:37.778Z,20.43
2022-08-20T18:26:20.297Z,20.28
2022-08-20T18:28:50.371Z,20.20
2022-08-20T18:31:29.147Z,20.14
2022-08-20T18:33:56.697Z,19.94
2022-08-20T18:36:28.141Z,19.70
2022-08-20T18:39:02.201Z,19.53
2022-08-20T18:41:31.458Z,19.37
2022-08-20T18:44:06.844Z,19.10
2022-08-20T18:46:34.663Z,18.98
2022-08-20T18:49:07.726Z,18.92
2022-08-20T18:51:49.389Z,18.78
2022-08-20T18:54:25.578Z,18.57
2022-08-20T18:57:05.965Z,18.47
2022-08-20T18:59:47.148Z,18.35
2022-08-20T19:02:22.495Z,18.16
2022-08-20T19:05:02.579Z,18.03
2022-08-20T19:07:47.853Z,17.89
2022-08-20T19:10:46.920Z,17.74
2022-08-20T19:13:59.871Z,17.61
2022-08-20T19:16:34.908Z,17.45
2022-08-20T19:19:05.008Z,17.39
2022-08-20T19:21:35.887Z,17.24
2022-08-20T19:24:07.646Z,17.17
2022-08-20T19:26:44.170Z,17.03
2022-08-20T19:29:15.876Z,16.97
2022-08-20T19:32:12.397Z,16.90
2022-08-20T19:34:40.128Z,16.79
2022-08-20T19:37:35.309Z,16.78
2022-08-20T19:40:04.720Z,16.74
2022-08-20T19:42:40.223Z,16.66
2022-08-20T19:45:10.549Z,16.54
2022-08-20T19:47:54.968Z,16.44
2022-08-20T19:50:29.471Z,16.31
2022-08-20T19:53:04.809Z,16.18
2022-08-20T19:55:36.472Z,16.12
2022-08-20T19:58:07.620Z,16.15
2022-08-20T20:00:39.363Z,16.04
2022-08-20T20:03:10.923Z,15.95
2022-08-20T20:05:49.319Z,15.88
2022-08-20T20:08:16.275Z,15.85
2022-08-20T20:10:52.942Z,15.81
2022-08-20T20:13:21.788Z,15.76
2022-08-20T20:15:52.720Z,15.68
2022-08-20T20:18:20.982Z,15.70
2022-08-20T20:20:57.409Z,15.62
2022-08-20T20:23:27.136Z,15.60
2022-08-20T20:25:59.534Z,15.61
2022-08-20T20:28:28.832Z,15.58
2022-08-20T20:31:06.365Z,15.57
2022-08-20T20:33:38.260Z,15.60
2022-08-20T20:36:12.598Z,15.57
2022-08-20T20:38:52.662Z,15.58
2022-08-20T20:41:23.021Z,15.62
2022-08-20T20:44:01.855Z,15.61
2022-08-20T20:46:30.942Z,15.59
2022-08-20T20:49:00.907Z,15.59
2022-08-20T20:51:30.043Z,15.56
2022-08-20T20:53:59.780Z,15.53
2022-08-20T20:56:32.362Z,15.51
2022-08-20T20:59:05.278Z,15.47
2022-08-20T21:01:48.766Z,15.42
2022-08-20T21:04:16.649Z,15.40
2022-08-20T21:06:43.746Z,15.36
2022-08-20T21:09:10.691Z,15.34
2022-08-20T21:11:38.841Z,15.29
2022-08-20T21:14:05.647Z,15.24
2022-08-20T21:16:32.440Z,15.14
2022-08-20T21:18:59.268Z,15.08
2022-08-20T21:21:26.090Z,15.11
2022-08-20T21:23:52.880Z,15.07
2022-08-20T21:26:19.683Z,15.05
2022-08-20T21:28:47.871Z,15.04
2022-08-20T21:31:14.677Z,15.08
2022-08-20T21:33:41.575Z,15.03
2022-08-20T21:36:08.435Z,15.02
2022-08-20T21:38:36.642Z,14.96
2022-08-20T21:41:03.710Z,14.90
2022-08-20T21:43:32.786Z,14.85
2022-08-20T21:46:02.342Z,14.84
2022-08-20T21:48:30.031Z,14.82
2022-08-20T21:50:56.821Z,14.74
2022-08-20T21:53:23.650Z,14.70
2022-08-20T21:55:50.832Z,14.59
2022-08-20T21:58:18.904Z,14.56
2022-08-20T22:00:53.481Z,14.49
2022-08-20T22:03:23.554Z,14.46
2022-08-20T22:05:51.114Z,14.42
2022-08-20T22:08:19.904Z,14.36
2022-08-20T22:10:46.886Z,14.28
2022-08-20T22:13:13.945Z,14.21
2022-08-20T22:15:41.024Z,14.16
2022-08-20T22:18:11.114Z,14.14
2022-08-20T22:20:39.634Z,14.12
2022-08-20T22:23:07.157Z,14.03
2022-08-20T22:25:34.847Z,13.99
2022-08-20T22:28:01.971Z,13.93
2022-08-20T22:30:29.816Z,13.86
2022-08-20T22:33:00.024Z,13.81
2022-08-20T22:35:27.563Z,13.77
2022-08-20T22:37:55.920Z,13.80
2022-08-20T22:40:22.871Z,13.80
2022-08-20T22:42:49.730Z,13.75
2022-08-20T22:45:17.008Z,13.72
2022-08-20T22:47:44.142Z,13.67
2022-08-20T22:50:12.515Z,13.62
2022-08-20T22:52:42.090Z,13.60
2022-08-20T22:55:10.661Z,13.57
2022-08-20T22:57:38.837Z,13.57
2022-08-20T23:00:08.883Z,13.52
2022-08-20T23:02:36.006Z,13.50
2022-08-20T23:05:03.797Z,13.46
2022-08-20T23:07:30.927Z,13.42
2022-08-20T23:09:57.745Z,13.38
2022-08-20T23:12:25.932Z,13.34
2022-08-20T23:14:53.016Z,13.34
2022-08-20T23:17:19.948Z,13.30
2022-08-20T23:19:48.601Z,13.24
2022-08-20T23:22:15.916Z,13.19
2022-08-20T23:24:43.078Z,13.16
2022-08-20T23:27:14.056Z,13.19
2022-08-20T23:29:42.828Z,13.11
2022-08-20T23:32:09.645Z,13.07
2022-08-20T23:34:36.681Z,13.04
2022-08-20T23:37:05.077Z,12.97
2022-08-20T23:39:32.106Z,12.95
2022-08-20T23:41:59.792Z,12.94
2022-08-20T23:44:27.274Z,12.92
2022-08-20T23:46:57.972Z,12.95
2022-08-20T23:49:24.912Z,12.94
2022-08-20T23:51:51.726Z,12.92
2022-08-20T23:54:18.534Z,12.90
2022-08-20T23:56:45.289Z,12.90
2022-08-20T23:59:12.308Z,12.86
